sensor_id;sensor_type;location;lat;lon;timestamp;P1;durP1;ratioP1;P2;durP2;ratioP2
3068;SDS011;1545;51.728;8.796;2022-11-23T00:03:48;9.37;;;4.50;;
3068;SDS011;1545;51.728;8.796;2022-11-23T00:06:15;9.37;;;4.53;;
3068;SDS011;1545;51.728;8.796;2022-11-23T00:08:42;10.33;;;4.80;;
3068;SDS011;1545;51.728;8.796;2022-11-23T00:11:08;7.60;;;4.60;;
3068;SDS011;1545;51.728;8.796;2022-11-23T00:13:34;12.60;;;5.23;;
3068;SDS011;1545;51.728;8.796;2022-11-23T00:16:03;11.20;;;4.80;;
3068;SDS011;1545;51.728;8.796;2022-11-23T00:18:30;11.10;;;5.17;;
3068;SDS011;1545;51.728;8.796;2022-11-23T00:20:55;9.63;;;4.70;;
3068;SDS011;1545;51.728;8.796;2022-11-23T00:23:21;8.67;;;4.73;;
3068;SDS011;1545;51.728;8.796;2022-11-23T00:25:46;9.90;;;4.87;;
3068;SDS011;1545;51.728;8.796;2022-11-23T00:28:12;9.43;;;5.13;;
3068;SDS011;1545;51.728;8.796;2022-11-23T00:30:37;10.77;;;5.30;;
3068;SDS011;1545;51.728;8.796;2022-11-23T00:33:03;11.93;;;5.10;;
3068;SDS011;1545;51.728;8.796;2022-11-23T00:35:29;8.77;;;4.83;;
3068;SDS011;1545;51.728;8.796;2022-11-23T00:37:54;9.80;;;4.80;;
3068;SDS011;1545;51.728;8.796;2022-11-23T00:40:20;13.83;;;5.93;;
3068;SDS011;1545;51.728;8.796;2022-11-23T00:42:45;12.67;;;5.10;;
3068;SDS011;1545;51.728;8.796;2022-11-23T00:45:11;11.53;;;4.90;;
3068;SDS011;1545;51.728;8.796;2022-11-23T00:47:36;9.30;;;4.77;;
3068;SDS011;1545;51.728;8.796;2022-11-23T00:50:02;10.30;;;4.50;;
3068;SDS011;1545;51.728;8.796;2022-11-23T00:52:28;8.63;;;4.90;;
3068;SDS011;1545;51.728;8.796;2022-11-23T00:54:53;11.63;;;4.77;;
3068;SDS011;1545;51.728;8.796;2022-11-23T00:57:19;12.30;;;4.70;;
3068;SDS011;1545;51.728;8.796;2022-11-23T00:59:44;9.20;;;4.73;;
3068;SDS011;1545;51.728;8.796;2022-11-23T01:02:10;9.07;;;4.97;;
3068;SDS011;1545;51.728;8.796;2022-11-23T01:04:37;12.50;;;4.73;;
3068;SDS011;1545;51.728;8.796;2022-11-23T01:07:03;9.63;;;5.10;;
3068;SDS011;1545;51.728;8.796;2022-11-23T01:09:28;13.53;;;4.50;;
3068;SDS011;1545;51.728;8.796;2022-11-23T01:11:54;9.07;;;4.27;;
3068;SDS011;1545;51.728;8.796;2022-11-23T01:14:20;12.10;;;5.20;;
3068;SDS011;1545;51.728;8.796;2022-11-23T01:16:46;7.97;;;4.90;;
3068;SDS011;1545;51.728;8.796;2022-11-23T01:19:13;13.17;;;4.80;;
3068;SDS011;1545;51.728;8.796;2022-11-23T01:21:40;12.00;;;5.47;;
3068;SDS011;1545;51.728;8.796;2022-11-23T01:24:07;12.83;;;4.80;;
3068;SDS011;1545;51.728;8.796;2022-11-23T01:26:38;14.80;;;5.00;;
3068;SDS011;1545;51.728;8.796;2022-11-23T01:29:04;13.70;;;5.67;;
3068;SDS011;1545;51.728;8.796;2022-11-23T01:31:29;12.57;;;5.10;;
3068;SDS011;1545;51.728;8.796;2022-11-23T01:33:56;15.53;;;5.10;;
3068;SDS011;1545;51.728;8.796;2022-11-23T01:36:24;12.13;;;5.03;;
3068;SDS011;1545;51.728;8.796;2022-11-23T01:38:51;9.20;;;4.97;;
3068;SDS011;1545;51.728;8.796;2022-11-23T01:41:18;11.80;;;5.47;;
3068;SDS011;1545;51.728;8.796;2022-11-23T01:43:49;15.70;;;5.50;;
3068;SDS011;1545;51.728;8.796;2022-11-23T01:46:15;11.23;;;4.60;;
3068;SDS011;1545;51.728;8.796;2022-11-23T01:51:29;13.00;;;5.20;;
3068;SDS011;1545;51.728;8.796;2022-11-23T01:54:08;13.03;;;5.10;;
3068;SDS011;1545;51.728;8.796;2022-11-23T01:56:41;9.57;;;5.30;;
3068;SDS011;1545;51.728;8.796;2022-11-23T01:59:10;10.57;;;5.17;;
3068;SDS011;1545;51.728;8.796;2022-11-23T02:01:40;10.43;;;5.47;;
3068;SDS011;1545;51.728;8.796;2022-11-23T02:04:06;10.13;;;5.47;;
3068;SDS011;1545;51.728;8.796;2022-11-23T02:06:34;9.03;;;4.77;;
3068;SDS011;1545;51.728;8.796;2022-11-23T02:09:01;13.00;;;5.13;;
3068;SDS011;1545;51.728;8.796;2022-11-23T02:11:26;14.27;;;5.27;;
3068;SDS011;1545;51.728;8.796;2022-11-23T02:13:52;10.57;;;5.73;;
3068;SDS011;1545;51.728;8.796;2022-11-23T02:16:18;12.10;;;4.87;;
3068;SDS011;1545;51.728;8.796;2022-11-23T02:18:44;9.77;;;4.73;;
3068;SDS011;1545;51.728;8.796;2022-11-23T02:21:12;12.30;;;4.80;;
3068;SDS011;1545;51.728;8.796;2022-11-23T02:23:43;8.43;;;5.00;;
3068;SDS011;1545;51.728;8.796;2022-11-23T02:26:17;12.47;;;5.33;;
3068;SDS011;1545;51.728;8.796;2022-11-23T02:28:49;8.70;;;4.63;;
3068;SDS011;1545;51.728;8.796;2022-11-23T02:31:27;14.10;;;5.40;;
3068;SDS011;1545;51.728;8.796;2022-11-23T02:33:53;10.47;;;4.93;;
3068;SDS011;1545;51.728;8.796;2022-11-23T02:41:38;12.17;;;5.60;;
3068;SDS011;1545;51.728;8.796;2022-11-23T02:44:08;12.03;;;5.20;;
3068;SDS011;1545;51.728;8.796;2022-11-23T02:46:59;11.70;;;5.87;;
3068;SDS011;1545;51.728;8.796;2022-11-23T02:49:24;13.40;;;5.77;;
3068;SDS011;1545;51.728;8.796;2022-11-23T02:51:50;12.60;;;5.83;;
3068;SDS011;1545;51.728;8.796;2022-11-23T02:54:16;15.00;;;6.27;;
3068;SDS011;1545;51.728;8.796;2022-11-23T02:56:42;10.93;;;5.67;;
3068;SDS011;1545;51.728;8.796;2022-11-23T02:59:07;13.20;;;6.20;;
3068;SDS011;1545;51.728;8.796;2022-11-23T03:01:33;13.60;;;6.83;;
3068;SDS011;1545;51.728;8.796;2022-11-23T03:03:58;11.97;;;6.63;;
3068;SDS011;1545;51.728;8.796;2022-11-23T03:06:24;11.00;;;5.93;;
3068;SDS011;1545;51.728;8.796;2022-11-23T03:08:50;15.23;;;6.47;;
3068;SDS011;1545;51.728;8.796;2022-11-23T03:11:15;12.33;;;6.23;;
3068;SDS011;1545;51.728;8.796;2022-11-23T03:13:41;11.93;;;5.80;;
3068;SDS011;1545;51.728;8.796;2022-11-23T03:16:07;13.07;;;5.77;;
3068;SDS011;1545;51.728;8.796;2022-11-23T03:18:33;11.23;;;6.00;;
3068;SDS011;1545;51.728;8.796;2022-11-23T03:21:03;13.17;;;5.40;;
3068;SDS011;1545;51.728;8.796;2022-11-23T03:23:29;10.27;;;5.43;;
3068;SDS011;1545;51.728;8.796;2022-11-23T03:25:57;11.33;;;5.17;;
3068;SDS011;1545;51.728;8.796;2022-11-23T03:28:23;12.70;;;6.03;;
3068;SDS011;1545;51.728;8.796;2022-11-23T03:30:49;11.73;;;5.70;;
3068;SDS011;1545;51.728;8.796;2022-11-23T03:33:15;11.37;;;5.70;;
3068;SDS011;1545;51.728;8.796;2022-11-23T03:35:42;9.33;;;5.37;;
3068;SDS011;1545;51.728;8.796;2022-11-23T03:38:07;9.07;;;5.30;;
3068;SDS011;1545;51.728;8.796;2022-11-23T03:40:33;12.67;;;6.13;;
3068;SDS011;1545;51.728;8.796;2022-11-23T03:42:59;8.27;;;5.20;;
3068;SDS011;1545;51.728;8.796;2022-11-23T03:45:24;12.23;;;5.80;;
3068;SDS011;1545;51.728;8.796;2022-11-23T03:47:50;11.63;;;5.90;;
3068;SDS011;1545;51.728;8.796;2022-11-23T03:50:15;13.33;;;6.23;;
3068;SDS011;1545;51.728;8.796;2022-11-23T03:52:41;7.93;;;5.63;;
3068;SDS011;1545;51.728;8.796;2022-11-23T03:55:07;11.47;;;6.37;;
3068;SDS011;1545;51.728;8.796;2022-11-23T03:57:32;10.27;;;5.97;;
3068;SDS011;1545;51.728;8.796;2022-11-23T03:59:58;15.10;;;6.43;;
3068;SDS011;1545;51.728;8.796;2022-11-23T04:02:24;11.27;;;6.30;;
3068;SDS011;1545;51.728;8.796;2022-11-23T04:04:49;10.30;;;6.40;;
3068;SDS011;1545;51.728;8.796;2022-11-23T04:07:15;11.70;;;6.30;;
3068;SDS011;1545;51.728;8.796;2022-11-23T04:09:40;13.60;;;6.23;;
3068;SDS011;1545;51.728;8.796;2022-11-23T04:12:07;9.97;;;6.10;;
3068;SDS011;1545;51.728;8.796;2022-11-23T04:14:33;11.57;;;6.40;;
3068;SDS011;1545;51.728;8.796;2022-11-23T04:16:59;10.40;;;6.10;;
3068;SDS011;1545;51.728;8.796;2022-11-23T04:19:26;12.30;;;6.80;;
3068;SDS011;1545;51.728;8.796;2022-11-23T04:21:52;11.57;;;6.67;;
3068;SDS011;1545;51.728;8.796;2022-11-23T04:24:18;12.67;;;6.47;;
3068;SDS011;1545;51.728;8.796;2022-11-23T04:26:43;14.90;;;7.07;;
3068;SDS011;1545;51.728;8.796;2022-11-23T04:29:09;12.40;;;6.97;;
3068;SDS011;1545;51.728;8.796;2022-11-23T04:31:34;14.63;;;6.77;;
3068;SDS011;1545;51.728;8.796;2022-11-23T04:34:00;11.03;;;6.73;;
3068;SDS011;1545;51.728;8.796;2022-11-23T04:36:26;9.23;;;5.87;;
3068;SDS011;1545;51.728;8.796;2022-11-23T04:38:51;10.37;;;6.47;;
3068;SDS011;1545;51.728;8.796;2022-11-23T04:41:17;10.97;;;6.67;;
3068;SDS011;1545;51.728;8.796;2022-11-23T04:43:43;10.80;;;6.43;;
3068;SDS011;1545;51.728;8.796;2022-11-23T04:46:09;11.07;;;6.37;;
3068;SDS011;1545;51.728;8.796;2022-11-23T04:48:35;9.33;;;5.83;;
3068;SDS011;1545;51.728;8.796;2022-11-23T04:51:01;11.07;;;6.50;;
3068;SDS011;1545;51.728;8.796;2022-11-23T04:53:26;9.67;;;6.37;;
3068;SDS011;1545;51.728;8.796;2022-11-23T04:55:52;10.10;;;6.20;;
3068;SDS011;1545;51.728;8.796;2022-11-23T04:58:17;16.63;;;6.63;;
3068;SDS011;1545;51.728;8.796;2022-11-23T05:00:43;17.03;;;7.07;;
3068;SDS011;1545;51.728;8.796;2022-11-23T05:03:09;13.07;;;6.43;;
3068;SDS011;1545;51.728;8.796;2022-11-23T05:05:37;12.93;;;6.53;;
3068;SDS011;1545;51.728;8.796;2022-11-23T05:08:04;9.20;;;6.30;;
3068;SDS011;1545;51.728;8.796;2022-11-23T05:10:30;16.63;;;6.80;;
3068;SDS011;1545;51.728;8.796;2022-11-23T05:12:55;12.13;;;5.97;;
3068;SDS011;1545;51.728;8.796;2022-11-23T05:15:21;10.67;;;6.20;;
3068;SDS011;1545;51.728;8.796;2022-11-23T05:17:46;12.17;;;6.27;;
3068;SDS011;1545;51.728;8.796;2022-11-23T05:20:12;12.20;;;6.10;;
3068;SDS011;1545;51.728;8.796;2022-11-23T05:22:37;9.80;;;5.83;;
3068;SDS011;1545;51.728;8.796;2022-11-23T05:25:03;9.50;;;6.00;;
3068;SDS011;1545;51.728;8.796;2022-11-23T05:27:29;9.47;;;6.27;;
3068;SDS011;1545;51.728;8.796;2022-11-23T05:29:55;15.37;;;7.10;;
3068;SDS011;1545;51.728;8.796;2022-11-23T05:32:20;11.30;;;7.00;;
3068;SDS011;1545;51.728;8.796;2022-11-23T05:34:46;16.47;;;7.20;;
3068;SDS011;1545;51.728;8.796;2022-11-23T05:37:12;13.10;;;7.30;;
3068;SDS011;1545;51.728;8.796;2022-11-23T05:39:37;8.97;;;5.90;;
3068;SDS011;1545;51.728;8.796;2022-11-23T05:42:03;9.47;;;5.87;;
3068;SDS011;1545;51.728;8.796;2022-11-23T05:44:28;11.83;;;5.27;;
3068;SDS011;1545;51.728;8.796;2022-11-23T05:46:54;9.13;;;5.57;;
3068;SDS011;1545;51.728;8.796;2022-11-23T05:49:20;17.67;;;5.93;;
3068;SDS011;1545;51.728;8.796;2022-11-23T05:51:45;12.20;;;6.03;;
3068;SDS011;1545;51.728;8.796;2022-11-23T05:54:11;15.93;;;6.47;;
3068;SDS011;1545;51.728;8.796;2022-11-23T05:56:36;11.57;;;6.00;;
3068;SDS011;1545;51.728;8.796;2022-11-23T05:59:02;12.67;;;6.47;;
3068;SDS011;1545;51.728;8.796;2022-11-23T06:01:29;9.13;;;5.20;;
3068;SDS011;1545;51.728;8.796;2022-11-23T06:03:55;15.57;;;5.93;;
3068;SDS011;1545;51.728;8.796;2022-11-23T06:06:21;13.87;;;6.47;;
3068;SDS011;1545;51.728;8.796;2022-11-23T06:08:47;12.50;;;6.40;;
3068;SDS011;1545;51.728;8.796;2022-11-23T06:11:12;13.50;;;6.63;;
3068;SDS011;1545;51.728;8.796;2022-11-23T06:13:38;10.33;;;6.50;;
3068;SDS011;1545;51.728;8.796;2022-11-23T06:16:04;13.93;;;7.20;;
3068;SDS011;1545;51.728;8.796;2022-11-23T06:18:30;19.13;;;7.77;;
3068;SDS011;1545;51.728;8.796;2022-11-23T06:20:58;15.47;;;8.73;;
3068;SDS011;1545;51.728;8.796;2022-11-23T06:23:25;13.17;;;6.60;;
3068;SDS011;1545;51.728;8.796;2022-11-23T06:25:51;13.03;;;6.70;;
3068;SDS011;1545;51.728;8.796;2022-11-23T06:28:16;14.97;;;6.50;;
3068;SDS011;1545;51.728;8.796;2022-11-23T06:30:42;14.23;;;6.87;;
3068;SDS011;1545;51.728;8.796;2022-11-23T06:33:07;16.67;;;7.67;;
3068;SDS011;1545;51.728;8.796;2022-11-23T06:35:33;16.70;;;6.67;;
3068;SDS011;1545;51.728;8.796;2022-11-23T06:37:59;11.17;;;6.23;;
3068;SDS011;1545;51.728;8.796;2022-11-23T06:40:24;10.23;;;6.00;;
3068;SDS011;1545;51.728;8.796;2022-11-23T06:42:50;13.60;;;6.23;;
3068;SDS011;1545;51.728;8.796;2022-11-23T06:45:17;14.50;;;6.23;;
3068;SDS011;1545;51.728;8.796;2022-11-23T06:47:43;15.67;;;6.20;;
3068;SDS011;1545;51.728;8.796;2022-11-23T06:50:09;13.93;;;6.30;;
3068;SDS011;1545;51.728;8.796;2022-11-23T06:52:34;11.83;;;6.50;;
3068;SDS011;1545;51.728;8.796;2022-11-23T06:55:00;13.47;;;6.57;;
3068;SDS011;1545;51.728;8.796;2022-11-23T06:57:25;17.23;;;6.93;;
3068;SDS011;1545;51.728;8.796;2022-11-23T06:59:51;11.73;;;6.10;;
3068;SDS011;1545;51.728;8.796;2022-11-23T07:02:16;16.47;;;6.73;;
3068;SDS011;1545;51.728;8.796;2022-11-23T07:04:42;11.40;;;6.00;;
3068;SDS011;1545;51.728;8.796;2022-11-23T07:07:08;11.77;;;5.73;;
3068;SDS011;1545;51.728;8.796;2022-11-23T07:09:33;16.03;;;6.90;;
3068;SDS011;1545;51.728;8.796;2022-11-23T07:11:59;15.17;;;6.40;;
3068;SDS011;1545;51.728;8.796;2022-11-23T07:14:25;16.90;;;6.83;;
3068;SDS011;1545;51.728;8.796;2022-11-23T07:16:51;16.43;;;6.40;;
3068;SDS011;1545;51.728;8.796;2022-11-23T07:19:16;14.70;;;5.93;;
3068;SDS011;1545;51.728;8.796;2022-11-23T07:21:42;17.53;;;6.40;;
3068;SDS011;1545;51.728;8.796;2022-11-23T07:24:09;13.30;;;5.97;;
3068;SDS011;1545;51.728;8.796;2022-11-23T07:26:34;21.57;;;10.47;;
3068;SDS011;1545;51.728;8.796;2022-11-23T07:29:00;16.67;;;6.67;;
3068;SDS011;1545;51.728;8.796;2022-11-23T07:31:26;15.53;;;6.33;;
3068;SDS011;1545;51.728;8.796;2022-11-23T07:33:52;19.77;;;7.27;;
3068;SDS011;1545;51.728;8.796;2022-11-23T07:36:17;17.13;;;7.50;;
3068;SDS011;1545;51.728;8.796;2022-11-23T07:38:43;20.70;;;7.10;;
3068;SDS011;1545;51.728;8.796;2022-11-23T07:41:09;13.90;;;6.73;;
3068;SDS011;1545;51.728;8.796;2022-11-23T07:43:34;18.13;;;7.57;;
3068;SDS011;1545;51.728;8.796;2022-11-23T07:46:00;21.57;;;8.63;;
3068;SDS011;1545;51.728;8.796;2022-11-23T07:48:25;23.50;;;7.47;;
3068;SDS011;1545;51.728;8.796;2022-11-23T07:50:51;17.03;;;6.30;;
3068;SDS011;1545;51.728;8.796;2022-11-23T07:53:18;18.73;;;6.90;;
3068;SDS011;1545;51.728;8.796;2022-11-23T07:55:44;15.47;;;6.73;;
3068;SDS011;1545;51.728;8.796;2022-11-23T07:58:09;15.73;;;6.90;;
3068;SDS011;1545;51.728;8.796;2022-11-23T08:00:35;16.30;;;6.13;;
3068;SDS011;1545;51.728;8.796;2022-11-23T08:03:02;14.43;;;6.90;;
3068;SDS011;1545;51.728;8.796;2022-11-23T08:05:31;15.00;;;5.67;;
3068;SDS011;1545;51.728;8.796;2022-11-23T08:07:59;16.23;;;5.80;;
3068;SDS011;1545;51.728;8.796;2022-11-23T08:10:26;16.83;;;6.40;;
3068;SDS011;1545;51.728;8.796;2022-11-23T08:12:55;12.13;;;5.57;;
3068;SDS011;1545;51.728;8.796;2022-11-23T08:15:28;14.07;;;6.10;;
3068;SDS011;1545;51.728;8.796;2022-11-23T08:17:54;11.87;;;5.97;;
3068;SDS011;1545;51.728;8.796;2022-11-23T08:20:24;11.87;;;5.70;;
3068;SDS011;1545;51.728;8.796;2022-11-23T08:22:51;11.90;;;6.67;;
3068;SDS011;1545;51.728;8.796;2022-11-23T08:25:19;14.67;;;5.53;;
3068;SDS011;1545;51.728;8.796;2022-11-23T08:27:59;18.30;;;6.23;;
3068;SDS011;1545;51.728;8.796;2022-11-23T08:30:27;15.03;;;5.97;;
3068;SDS011;1545;51.728;8.796;2022-11-23T08:32:54;14.27;;;5.03;;
3068;SDS011;1545;51.728;8.796;2022-11-23T08:35:20;16.27;;;6.47;;
3068;SDS011;1545;51.728;8.796;2022-11-23T08:37:45;13.93;;;6.33;;
3068;SDS011;1545;51.728;8.796;2022-11-23T08:40:11;12.63;;;5.53;;
3068;SDS011;1545;51.728;8.796;2022-11-23T08:42:38;18.50;;;5.73;;
3068;SDS011;1545;51.728;8.796;2022-11-23T08:45:03;21.23;;;9.23;;
3068;SDS011;1545;51.728;8.796;2022-11-23T08:47:31;20.40;;;5.77;;
3068;SDS011;1545;51.728;8.796;2022-11-23T08:49:57;12.40;;;5.17;;
3068;SDS011;1545;51.728;8.796;2022-11-23T08:52:23;11.33;;;5.10;;
3068;SDS011;1545;51.728;8.796;2022-11-23T08:54:49;11.97;;;5.40;;
3068;SDS011;1545;51.728;8.796;2022-11-23T08:57:14;11.63;;;4.90;;
3068;SDS011;1545;51.728;8.796;2022-11-23T08:59:40;11.73;;;5.03;;
3068;SDS011;1545;51.728;8.796;2022-11-23T09:02:05;10.47;;;5.40;;
3068;SDS011;1545;51.728;8.796;2022-11-23T09:04:32;18.93;;;6.60;;
3068;SDS011;1545;51.728;8.796;2022-11-23T09:06:57;17.70;;;5.60;;
3068;SDS011;1545;51.728;8.796;2022-11-23T09:09:23;12.97;;;4.90;;
3068;SDS011;1545;51.728;8.796;2022-11-23T09:11:49;16.27;;;4.73;;
3068;SDS011;1545;51.728;8.796;2022-11-23T09:14:14;10.33;;;4.67;;
3068;SDS011;1545;51.728;8.796;2022-11-23T09:16:40;13.50;;;5.43;;
3068;SDS011;1545;51.728;8.796;2022-11-23T09:19:06;13.20;;;4.70;;
3068;SDS011;1545;51.728;8.796;2022-11-23T09:21:32;8.70;;;4.50;;
3068;SDS011;1545;51.728;8.796;2022-11-23T09:23:59;11.00;;;4.13;;
3068;SDS011;1545;51.728;8.796;2022-11-23T09:26:25;12.17;;;4.77;;
3068;SDS011;1545;51.728;8.796;2022-11-23T09:28:51;7.37;;;3.97;;
3068;SDS011;1545;51.728;8.796;2022-11-23T09:31:16;8.60;;;4.57;;
3068;SDS011;1545;51.728;8.796;2022-11-23T09:33:42;16.17;;;4.80;;
3068;SDS011;1545;51.728;8.796;2022-11-23T09:36:07;13.60;;;4.80;;
3068;SDS011;1545;51.728;8.796;2022-11-23T09:38:33;9.83;;;4.53;;
3068;SDS011;1545;51.728;8.796;2022-11-23T09:46:20;7.20;;;4.10;;
3068;SDS011;1545;51.728;8.796;2022-11-23T09:49:09;9.17;;;4.47;;
3068;SDS011;1545;51.728;8.796;2022-11-23T09:51:43;11.63;;;4.67;;
3068;SDS011;1545;51.728;8.796;2022-11-23T09:54:14;11.60;;;4.37;;
3068;SDS011;1545;51.728;8.796;2022-11-23T09:56:49;11.33;;;4.63;;
3068;SDS011;1545;51.728;8.796;2022-11-23T09:59:23;9.97;;;4.20;;
3068;SDS011;1545;51.728;8.796;2022-11-23T10:01:50;10.70;;;4.00;;
3068;SDS011;1545;51.728;8.796;2022-11-23T10:04:16;9.23;;;4.03;;
3068;SDS011;1545;51.728;8.796;2022-11-23T10:06:44;9.95;;;4.20;;
3068;SDS011;1545;51.728;8.796;2022-11-23T10:09:25;10.37;;;4.30;;
3068;SDS011;1545;51.728;8.796;2022-11-23T10:12:16;8.43;;;3.83;;
3068;SDS011;1545;51.728;8.796;2022-11-23T10:20:42;15.20;;;7.60;;
3068;SDS011;1545;51.728;8.796;2022-11-23T10:26:08;14.50;;;4.93;;
3068;SDS011;1545;51.728;8.796;2022-11-23T10:28:42;14.57;;;5.00;;
3068;SDS011;1545;51.728;8.796;2022-11-23T10:31:11;13.73;;;4.73;;
3068;SDS011;1545;51.728;8.796;2022-11-23T10:36:18;13.47;;;4.80;;
3068;SDS011;1545;51.728;8.796;2022-11-23T10:38:44;11.20;;;4.07;;
3068;SDS011;1545;51.728;8.796;2022-11-23T10:41:14;13.60;;;4.40;;
3068;SDS011;1545;51.728;8.796;2022-11-23T10:46:52;10.10;;;4.27;;
3068;SDS011;1545;51.728;8.796;2022-11-23T10:51:49;13.40;;;4.30;;
3068;SDS011;1545;51.728;8.796;2022-11-23T10:56:48;16.57;;;4.03;;
3068;SDS011;1545;51.728;8.796;2022-11-23T11:02:17;11.57;;;4.00;;
3068;SDS011;1545;51.728;8.796;2022-11-23T11:04:45;9.90;;;4.00;;
3068;SDS011;1545;51.728;8.796;2022-11-23T11:09:48;11.40;;;4.07;;
3068;SDS011;1545;51.728;8.796;2022-11-23T11:12:15;19.93;;;4.07;;
3068;SDS011;1545;51.728;8.796;2022-11-23T11:14:53;11.57;;;3.50;;
3068;SDS011;1545;51.728;8.796;2022-11-23T11:17:39;11.03;;;4.00;;
3068;SDS011;1545;51.728;8.796;2022-11-23T11:20:28;9.23;;;3.20;;
3068;SDS011;1545;51.728;8.796;2022-11-23T11:22:56;10.20;;;3.80;;
3068;SDS011;1545;51.728;8.796;2022-11-23T11:25:28;13.10;;;3.50;;
3068;SDS011;1545;51.728;8.796;2022-11-23T11:27:55;16.20;;;4.13;;
3068;SDS011;1545;51.728;8.796;2022-11-23T11:30:23;9.70;;;3.27;;
3068;SDS011;1545;51.728;8.796;2022-11-23T11:33:01;13.03;;;3.77;;
3068;SDS011;1545;51.728;8.796;2022-11-23T11:35:35;8.13;;;3.23;;
3068;SDS011;1545;51.728;8.796;2022-11-23T11:38:15;13.80;;;3.23;;
3068;SDS011;1545;51.728;8.796;2022-11-23T11:40:56;14.47;;;4.50;;
3068;SDS011;1545;51.728;8.796;2022-11-23T11:43:35;11.77;;;3.40;;
3068;SDS011;1545;51.728;8.796;2022-11-23T11:46:05;24.70;;;5.00;;
3068;SDS011;1545;51.728;8.796;2022-11-23T11:48:48;11.67;;;4.20;;
3068;SDS011;1545;51.728;8.796;2022-11-23T11:53:56;19.53;;;7.60;;
3068;SDS011;1545;51.728;8.796;2022-11-23T11:56:46;19.50;;;5.97;;
3068;SDS011;1545;51.728;8.796;2022-11-23T11:59:24;17.87;;;5.20;;
3068;SDS011;1545;51.728;8.796;2022-11-23T12:10:02;16.37;;;4.77;;
3068;SDS011;1545;51.728;8.796;2022-11-23T12:12:40;14.73;;;5.90;;
3068;SDS011;1545;51.728;8.796;2022-11-23T12:15:08;17.83;;;5.70;;
3068;SDS011;1545;51.728;8.796;2022-11-23T12:17:53;16.87;;;5.37;;
3068;SDS011;1545;51.728;8.796;2022-11-23T12:20:55;13.87;;;5.57;;
3068;SDS011;1545;51.728;8.796;2022-11-23T12:29:23;18.00;;;5.60;;
3068;SDS011;1545;51.728;8.796;2022-11-23T12:34:53;18.63;;;5.83;;
3068;SDS011;1545;51.728;8.796;2022-11-23T12:43:23;17.97;;;5.40;;
3068;SDS011;1545;51.728;8.796;2022-11-23T12:46:04;24.13;;;7.20;;
3068;SDS011;1545;51.728;8.796;2022-11-23T12:51:17;18.00;;;7.13;;
3068;SDS011;1545;51.728;8.796;2022-11-23T12:54:08;23.40;;;6.30;;
3068;SDS011;1545;51.728;8.796;2022-11-23T12:56:58;22.03;;;5.87;;
3068;SDS011;1545;51.728;8.796;2022-11-23T13:02:14;19.53;;;6.30;;
3068;SDS011;1545;51.728;8.796;2022-11-23T13:14:01;17.07;;;5.00;;
3068;SDS011;1545;51.728;8.796;2022-11-23T13:19:15;22.20;;;5.67;;
3068;SDS011;1545;51.728;8.796;2022-11-23T13:21:58;16.83;;;5.27;;
3068;SDS011;1545;51.728;8.796;2022-11-23T13:29:46;15.33;;;4.90;;
3068;SDS011;1545;51.728;8.796;2022-11-23T13:43:01;13.93;;;4.80;;
3068;SDS011;1545;51.728;8.796;2022-11-23T13:45:31;16.93;;;4.60;;
3068;SDS011;1545;51.728;8.796;2022-11-23T13:50:38;17.47;;;4.77;;
3068;SDS011;1545;51.728;8.796;2022-11-23T13:53:30;18.30;;;5.23;;
3068;SDS011;1545;51.728;8.796;2022-11-23T13:55:58;13.63;;;4.67;;
3068;SDS011;1545;51.728;8.796;2022-11-23T13:58:49;31.43;;;9.13;;
3068;SDS011;1545;51.728;8.796;2022-11-23T14:04:22;23.17;;;8.63;;
3068;SDS011;1545;51.728;8.796;2022-11-23T14:06:49;17.13;;;6.33;;
3068;SDS011;1545;51.728;8.796;2022-11-23T14:09:25;15.57;;;5.50;;
3068;SDS011;1545;51.728;8.796;2022-11-23T14:20:09;17.30;;;6.10;;
3068;SDS011;1545;51.728;8.796;2022-11-23T14:25:15;21.73;;;7.43;;
3068;SDS011;1545;51.728;8.796;2022-11-23T14:28:05;17.73;;;5.10;;
3068;SDS011;1545;51.728;8.796;2022-11-23T14:30:55;20.20;;;5.77;;
3068;SDS011;1545;51.728;8.796;2022-11-23T14:33:44;20.70;;;5.97;;
3068;SDS011;1545;51.728;8.796;2022-11-23T14:39:32;25.00;;;6.70;;
3068;SDS011;1545;51.728;8.796;2022-11-23T14:42:18;25.43;;;5.67;;
3068;SDS011;1545;51.728;8.796;2022-11-23T14:44:46;12.67;;;5.50;;
3068;SDS011;1545;51.728;8.796;2022-11-23T14:47:12;22.80;;;6.20;;
3068;SDS011;1545;51.728;8.796;2022-11-23T14:49:47;22.03;;;6.63;;
3068;SDS011;1545;51.728;8.796;2022-11-23T14:52:18;26.77;;;6.17;;
3068;SDS011;1545;51.728;8.796;2022-11-23T14:54:49;22.00;;;6.43;;
3068;SDS011;1545;51.728;8.796;2022-11-23T14:57:17;19.93;;;5.47;;
3068;SDS011;1545;51.728;8.796;2022-11-23T14:59:46;24.07;;;6.37;;
3068;SDS011;1545;51.728;8.796;2022-11-23T15:02:21;25.50;;;7.27;;
3068;SDS011;1545;51.728;8.796;2022-11-23T15:04:58;24.60;;;6.07;;
3068;SDS011;1545;51.728;8.796;2022-11-23T15:07:32;27.90;;;5.83;;
3068;SDS011;1545;51.728;8.796;2022-11-23T15:10:10;21.07;;;6.20;;
3068;SDS011;1545;51.728;8.796;2022-11-23T15:12:59;21.23;;;5.40;;
3068;SDS011;1545;51.728;8.796;2022-11-23T15:15:26;19.03;;;5.37;;
3068;SDS011;1545;51.728;8.796;2022-11-23T15:18:01;23.33;;;5.50;;
3068;SDS011;1545;51.728;8.796;2022-11-23T15:20:36;22.50;;;5.90;;
3068;SDS011;1545;51.728;8.796;2022-11-23T15:23:21;25.50;;;6.17;;
3068;SDS011;1545;51.728;8.796;2022-11-23T15:25:49;32.20;;;7.00;;
3068;SDS011;1545;51.728;8.796;2022-11-23T15:28:22;30.07;;;5.80;;
3068;SDS011;1545;51.728;8.796;2022-11-23T15:30:50;33.77;;;5.40;;
3068;SDS011;1545;51.728;8.796;2022-11-23T15:33:17;22.20;;;5.27;;
3068;SDS011;1545;51.728;8.796;2022-11-23T15:35:45;20.77;;;5.63;;
3068;SDS011;1545;51.728;8.796;2022-11-23T15:38:12;24.60;;;6.10;;
3068;SDS011;1545;51.728;8.796;2022-11-23T15:40:43;16.90;;;6.60;;
3068;SDS011;1545;51.728;8.796;2022-11-23T15:43:13;20.67;;;5.00;;
3068;SDS011;1545;51.728;8.796;2022-11-23T15:48:20;18.50;;;4.80;;
3068;SDS011;1545;51.728;8.796;2022-11-23T15:50:58;16.90;;;4.70;;
3068;SDS011;1545;51.728;8.796;2022-11-23T15:53:26;19.33;;;4.73;;
3068;SDS011;1545;51.728;8.796;2022-11-23T15:56:15;19.07;;;5.70;;
3068;SDS011;1545;51.728;8.796;2022-11-23T15:58:44;21.53;;;5.70;;
3068;SDS011;1545;51.728;8.796;2022-11-23T16:01:12;20.10;;;6.13;;
3068;SDS011;1545;51.728;8.796;2022-11-23T16:06:07;19.73;;;5.20;;
3068;SDS011;1545;51.728;8.796;2022-11-23T16:08:43;12.27;;;5.47;;
3068;SDS011;1545;51.728;8.796;2022-11-23T16:11:19;24.53;;;6.00;;
3068;SDS011;1545;51.728;8.796;2022-11-23T16:13:50;23.67;;;5.47;;
3068;SDS011;1545;51.728;8.796;2022-11-23T16:16:17;21.77;;;5.87;;
3068;SDS011;1545;51.728;8.796;2022-11-23T16:18:46;14.60;;;4.77;;
3068;SDS011;1545;51.728;8.796;2022-11-23T16:21:16;28.73;;;5.47;;
3068;SDS011;1545;51.728;8.796;2022-11-23T16:23:46;21.97;;;7.00;;
3068;SDS011;1545;51.728;8.796;2022-11-23T16:26:18;21.87;;;4.27;;
3068;SDS011;1545;51.728;8.796;2022-11-23T16:28:49;26.33;;;4.20;;
3068;SDS011;1545;51.728;8.796;2022-11-23T16:34:09;14.40;;;4.53;;
3068;SDS011;1545;51.728;8.796;2022-11-23T16:36:37;23.10;;;6.30;;
3068;SDS011;1545;51.728;8.796;2022-11-23T16:39:03;15.87;;;4.80;;
3068;SDS011;1545;51.728;8.796;2022-11-23T16:41:28;22.47;;;8.40;;
3068;SDS011;1545;51.728;8.796;2022-11-23T16:43:54;17.60;;;5.60;;
3068;SDS011;1545;51.728;8.796;2022-11-23T16:46:19;19.47;;;6.03;;
3068;SDS011;1545;51.728;8.796;2022-11-23T16:48:45;21.27;;;7.17;;
3068;SDS011;1545;51.728;8.796;2022-11-23T16:51:11;21.27;;;8.00;;
3068;SDS011;1545;51.728;8.796;2022-11-23T16:53:42;18.43;;;5.37;;
3068;SDS011;1545;51.728;8.796;2022-11-23T16:56:08;19.17;;;5.70;;
3068;SDS011;1545;51.728;8.796;2022-11-23T16:58:38;17.93;;;6.27;;
3068;SDS011;1545;51.728;8.796;2022-11-23T17:01:03;23.53;;;7.07;;
3068;SDS011;1545;51.728;8.796;2022-11-23T17:03:29;25.50;;;7.43;;
3068;SDS011;1545;51.728;8.796;2022-11-23T17:05:55;21.37;;;6.50;;
3068;SDS011;1545;51.728;8.796;2022-11-23T17:08:20;23.73;;;5.90;;
3068;SDS011;1545;51.728;8.796;2022-11-23T17:10:46;22.43;;;6.10;;
3068;SDS011;1545;51.728;8.796;2022-11-23T17:13:19;22.20;;;6.60;;
3068;SDS011;1545;51.728;8.796;2022-11-23T17:15:47;23.57;;;5.60;;
3068;SDS011;1545;51.728;8.796;2022-11-23T17:18:13;19.03;;;5.57;;
3068;SDS011;1545;51.728;8.796;2022-11-23T17:20:39;34.83;;;5.27;;